createdAt,value
2022-08-03T00:01:26.566Z,50.83
2022-08-03T00:03:52.934Z,50.68
2022-08-03T00:06:19.294Z,50.71
2022-08-03T00:08:45.654Z,50.78
2022-08-03T00:11:12.021Z,50.79
2022-08-03T00:13:38.377Z,50.68
2022-08-03T00:16:04.850Z,50.65
2022-08-03T00:18:31.218Z,50.72
2022-08-03T00:20:57.580Z,50.79
2022-08-03T00:23:23.951Z,50.82
2022-08-03T00:25:50.310Z,50.47
2022-08-03T00:28:16.665Z,50.78
2022-08-03T00:30:43.027Z,50.60
2022-08-03T00:33:11.082Z,50.53
2022-08-03T00:35:50.921Z,50.46
2022-08-03T00:38:17.883Z,50.25
2022-08-03T00:40:44.248Z,50.22
2022-08-03T00:43:11.498Z,50.33
2022-08-03T00:45:38.775Z,50.18
2022-08-03T00:48:05.527Z,50.34
2022-08-03T00:50:32.476Z,50.11
2022-08-03T00:52:59.151Z,49.85
2022-08-03T00:55:25.515Z,50.26
2022-08-03T00:57:51.885Z,50.21
2022-08-03T01:00:19.437Z,50.16
2022-08-03T01:02:45.782Z,49.69
2022-08-03T01:05:12.138Z,50.19
2022-08-03T01:07:57.092Z,50.21
2022-08-03T01:10:29.356Z,50.19
2022-08-03T01:12:59.546Z,50.11
2022-08-03T01:15:55.065Z,50.22
2022-08-03T01:18:22.747Z,50.20
2022-08-03T01:20:49.478Z,50.07
2022-08-03T01:23:35.844Z,50.25
2022-08-03T01:26:21.151Z,49.93
2022-08-03T01:28:59.526Z,50.06
2022-08-03T01:31:27.058Z,49.85
2022-08-03T01:33:55.667Z,49.86
2022-08-03T01:36:22.673Z,49.85
2022-08-03T01:38:50.030Z,50.14
2022-08-03T01:41:21.246Z,49.98
2022-08-03T01:44:28.643Z,49.72
2022-08-03T01:46:36.019Z,49.95
2022-08-03T01:49:09.037Z,49.59
2022-08-03T01:52:02.901Z,49.84
2022-08-03T01:54:22.787Z,49.64
2022-08-03T01:56:49.143Z,49.57
2022-08-03T01:59:15.498Z,49.42
2022-08-03T02:02:32.387Z,49.72
2022-08-03T02:04:28.177Z,49.58
2022-08-03T02:07:01.223Z,49.37
2022-08-03T02:09:29.336Z,49.57
2022-08-03T02:11:55.697Z,49.46
2022-08-03T02:14:22.099Z,49.36
2022-08-03T02:16:48.505Z,49.09
2022-08-03T02:19:14.865Z,49.37
2022-08-03T02:21:56.785Z,49.09
2022-08-03T02:24:27.559Z,49.17
2022-08-03T02:26:54.090Z,48.84
2022-08-03T02:29:21.618Z,48.99
2022-08-03T02:32:06.792Z,49.20
2022-08-03T02:34:34.761Z,49.05
2022-08-03T02:37:01.144Z,49.01
2022-08-03T02:39:27.969Z,49.11
2022-08-03T02:41:55.302Z,49.01
2022-08-03T02:44:23.909Z,49.26
2022-08-03T02:46:50.272Z,49.26
2022-08-03T02:49:42.667Z,49.11
2022-08-03T02:52:04.128Z,49.02
2022-08-03T02:54:30.503Z,49.21
2022-08-03T02:56:56.869Z,49.05
2022-08-03T02:59:23.243Z,49.16
2022-08-03T03:01:49.609Z,49.03
2022-08-03T03:04:15.962Z,49.50
2022-08-03T03:06:43.115Z,49.17
2022-08-03T03:09:13.309Z,49.61
2022-08-03T03:11:39.675Z,49.60
2022-08-03T03:14:06.042Z,49.50
2022-08-03T03:16:35.150Z,49.73
2022-08-03T03:19:01.538Z,49.98
2022-08-03T03:21:27.901Z,49.89
2022-08-03T03:23:54.254Z,50.09
2022-08-03T03:26:20.608Z,50.15
2022-08-03T03:28:47.145Z,50.09
2022-08-03T03:31:13.511Z,50.35
2022-08-03T03:33:39.871Z,50.28
2022-08-03T03:36:06.462Z,50.40
2022-08-03T03:38:32.818Z,50.43
2022-08-03T03:40:59.346Z,50.29
2022-08-03T03:43:25.754Z,50.56
2022-08-03T03:45:53.607Z,50.27
2022-08-03T03:48:19.970Z,50.63
2022-08-03T03:50:46.327Z,50.41
2022-08-03T03:53:13.106Z,50.51
2022-08-03T03:55:59.740Z,50.66
2022-08-03T03:58:26.491Z,50.48
2022-08-03T04:00:53.838Z,50.67
2022-08-03T04:03:20.355Z,50.47
2022-08-03T04:06:05.266Z,50.64
2022-08-03T04:08:50.346Z,50.86
2022-08-03T04:11:17.654Z,51.33
2022-08-03T04:13:50.998Z,52.34
2022-08-03T04:16:18.156Z,52.50
2022-08-03T04:18:44.893Z,51.72
2022-08-03T04:21:11.339Z,52.15
2022-08-03T04:23:37.977Z,52.75
2022-08-03T04:26:04.345Z,53.42
2022-08-03T04:28:31.976Z,53.77
2022-08-03T04:30:59.242Z,53.17
2022-08-03T04:33:26.364Z,54.18
2022-08-03T04:36:01.983Z,54.30
2022-08-03T04:38:30.058Z,54.42
2022-08-03T04:40:56.399Z,54.13
2022-08-03T04:43:22.770Z,54.26
2022-08-03T04:45:49.546Z,54.78
2022-08-03T04:48:15.933Z,54.98
2022-08-03T04:50:42.303Z,55.06
2022-08-03T04:53:08.915Z,54.47
2022-08-03T04:55:35.897Z,53.99
2022-08-03T04:58:02.393Z,54.18
2022-08-03T05:00:28.766Z,53.87
2022-08-03T05:02:55.378Z,53.74
2022-08-03T05:05:21.833Z,53.62
2022-08-03T05:07:49.951Z,53.72
2022-08-03T05:10:16.961Z,53.68
2022-08-03T05:12:43.687Z,53.69
2022-08-03T05:15:10.210Z,54.35
2022-08-03T05:17:36.850Z,53.86
2022-08-03T05:20:04.366Z,53.86
2022-08-03T05:22:30.723Z,53.48
2022-08-03T05:24:57.612Z,53.77
2022-08-03T05:27:23.983Z,53.92
2022-08-03T05:29:50.358Z,54.35
2022-08-03T05:32:16.890Z,54.41
2022-08-03T05:34:43.304Z,54.53
2022-08-03T05:37:09.767Z,54.04
2022-08-03T05:39:36.142Z,54.12
2022-08-03T05:42:02.493Z,54.41
2022-08-03T05:44:28.883Z,54.23
2022-08-03T05:46:57.135Z,54.28
2022-08-03T05:49:23.591Z,54.14
2022-08-03T05:52:00.106Z,54.36
2022-08-03T05:54:57.463Z,53.89
2022-08-03T05:57:22.694Z,54.40
2022-08-03T05:59:56.417Z,54.07
2022-08-03T06:02:25.871Z,54.13
2022-08-03T06:04:52.251Z,54.46
2022-08-03T06:07:18.598Z,54.71
2022-08-03T06:10:34.149Z,54.51
2022-08-03T06:12:31.318Z,54.33
2022-08-03T06:14:57.700Z,54.50
2022-08-03T06:17:24.075Z,54.53
2022-08-03T06:19:53.630Z,54.35
2022-08-03T06:22:20.165Z,54.58
2022-08-03T06:24:53.343Z,54.20
2022-08-03T06:27:20.501Z,54.58
2022-08-03T06:30:03.411Z,54.20
2022-08-03T06:32:29.766Z,54.41
2022-08-03T06:34:56.135Z,53.95
2022-08-03T06:37:23.223Z,53.53
2022-08-03T06:39:49.590Z,54.01
2022-08-03T06:42:16.162Z,54.15
2022-08-03T06:44:42.644Z,54.13
2022-08-03T06:47:08.997Z,54.06
2022-08-03T06:49:35.422Z,54.22
2022-08-03T06:52:05.154Z,53.94
2022-08-03T06:54:33.481Z,54.03
2022-08-03T06:56:59.888Z,54.34
2022-08-03T07:00:07.919Z,54.33
2022-08-03T07:02:12.594Z,54.05
2022-08-03T07:04:45.571Z,54.11
2022-08-03T07:07:11.927Z,54.27
2022-08-03T07:09:38.299Z,54.29
2022-08-03T07:12:06.595Z,54.28
2022-08-03T07:14:32.970Z,54.19
2022-08-03T07:16:59.330Z,54.32
2022-08-03T07:19:26.024Z,54.00
2022-08-03T07:21:53.633Z,54.05
2022-08-03T07:24:20.093Z,54.29
2022-08-03T07:26:46.453Z,54.35
2022-08-03T07:29:14.693Z,54.15
2022-08-03T07:31:42.118Z,54.13
2022-08-03T07:34:08.477Z,54.34
2022-08-03T07:36:34.844Z,54.30
2022-08-03T07:39:01.234Z,54.05
2022-08-03T07:41:42.405Z,54.35
2022-08-03T07:44:08.763Z,54.07
2022-08-03T07:46:35.115Z,54.13
2022-08-03T07:49:01.703Z,53.76
2022-08-03T07:51:28.126Z,54.27
2022-08-03T07:53:57.584Z,53.93
2022-08-03T07:56:24.988Z,54.13
2022-08-03T07:58:51.695Z,54.05
2022-08-03T08:01:19.469Z,54.21
2022-08-03T08:03:52.608Z,53.90
2022-08-03T08:06:19.970Z,54.33
2022-08-03T08:08:46.461Z,53.92
2022-08-03T08:11:12.855Z,54.07
2022-08-03T08:13:39.202Z,54.04
2022-08-03T08:16:05.643Z,53.92
2022-08-03T08:18:32.457Z,53.83
2022-08-03T08:20:58.814Z,54.02
2022-08-03T08:23:43.808Z,53.97
2022-08-03T08:26:11.501Z,53.81
2022-08-03T08:28:37.866Z,54.05
2022-08-03T08:31:04.217Z,54.10
2022-08-03T08:34:01.085Z,54.02
2022-08-03T08:36:17.244Z,53.91
2022-08-03T08:38:44.902Z,53.74
2022-08-03T08:41:11.321Z,53.88
2022-08-03T08:43:37.680Z,53.89
2022-08-03T08:46:05.105Z,53.72
2022-08-03T08:48:31.933Z,53.66
2022-08-03T08:50:58.362Z,53.80
2022-08-03T08:53:28.740Z,53.75
2022-08-03T08:56:01.618Z,53.78
2022-08-03T08:58:34.553Z,53.66
2022-08-03T09:01:00.997Z,53.95
2022-08-03T09:03:29.949Z,53.83
2022-08-03T09:05:56.956Z,53.72
2022-08-03T09:08:23.382Z,53.94
2022-08-03T09:10:49.750Z,53.83
2022-08-03T09:13:16.120Z,53.73
2022-08-03T09:15:42.489Z,53.69
2022-08-03T09:18:32.645Z,53.66
2022-08-03T09:21:30.099Z,53.80
2022-08-03T09:24:06.114Z,53.61
2022-08-03T09:26:34.240Z,53.85
2022-08-03T09:29:05.994Z,53.40
2022-08-03T09:31:36.923Z,53.50
2022-08-03T09:34:06.711Z,53.56
2022-08-03T09:36:39.871Z,53.33
2022-08-03T09:39:07.258Z,53.12
2022-08-03T09:41:33.623Z,52.98
2022-08-03T09:43:59.981Z,52.91
2022-08-03T09:46:28.405Z,53.02
2022-08-03T09:48:54.784Z,52.92
2022-08-03T09:52:27.305Z,53.28
2022-08-03T09:54:17.601Z,52.96
2022-08-03T09:56:47.154Z,53.26
2022-08-03T09:59:13.979Z,52.97
2022-08-03T10:01:43.166Z,53.37
2022-08-03T10:04:13.997Z,53.20
2022-08-03T10:06:40.375Z,53.39
2022-08-03T10:09:07.319Z,53.39
2022-08-03T10:11:40.988Z,53.31
2022-08-03T10:14:08.852Z,53.20
2022-08-03T10:16:35.775Z,53.37
2022-08-03T10:19:03.133Z,53.26
2022-08-03T10:21:31.843Z,53.19
2022-08-03T10:23:58.201Z,53.01
2022-08-03T10:26:24.547Z,53.03
2022-08-03T10:28:50.955Z,52.93
2022-08-03T10:31:17.338Z,53.14
2022-08-03T10:33:50.926Z,52.02
2022-08-03T10:36:19.010Z,51.95
2022-08-03T10:38:47.239Z,51.88
2022-08-03T10:41:13.970Z,51.68
2022-08-03T10:43:49.094Z,51.79
2022-08-03T10:46:15.955Z,51.54
2022-08-03T10:48:42.327Z,51.84
2022-08-03T10:51:08.703Z,51.96
2022-08-03T10:53:35.794Z,52.39
2022-08-03T10:56:35.447Z,52.68
2022-08-03T10:59:08.953Z,53.21
2022-08-03T11:02:00.372Z,53.25
2022-08-03T11:04:29.216Z,53.34
2022-08-03T11:07:15.580Z,53.40
2022-08-03T11:09:42.490Z,53.57
2022-08-03T11:12:21.619Z,53.59
2022-08-03T11:14:57.842Z,53.57
2022-08-03T11:17:24.216Z,53.49
2022-08-03T11:19:57.503Z,53.29
2022-08-03T11:22:25.028Z,53.31
2022-08-03T11:24:57.673Z,52.96
2022-08-03T11:27:33.559Z,53.34
2022-08-03T11:30:01.007Z,53.23
2022-08-03T11:32:50.243Z,53.53
2022-08-03T11:35:17.237Z,53.21
2022-08-03T11:38:05.017Z,53.17
2022-08-03T11:40:34.780Z,53.07
2022-08-03T11:43:01.377Z,53.47
2022-08-03T11:45:28.009Z,53.42
2022-08-03T11:47:54.586Z,53.39
2022-08-03T11:50:21.332Z,53.30
2022-08-03T11:52:48.118Z,53.15
2022-08-03T11:55:14.922Z,53.17
2022-08-03T11:59:12.973Z,53.30
2022-08-03T12:00:31.113Z,53.39
2022-08-03T12:03:01.263Z,53.56
2022-08-03T12:05:34.461Z,53.54
2022-08-03T12:08:04.021Z,53.33
2022-08-03T12:10:32.628Z,53.48
2022-08-03T12:12:59.410Z,53.48
2022-08-03T12:15:29.381Z,53.30
2022-08-03T12:17:57.823Z,53.60
2022-08-03T12:20:31.428Z,53.62
2022-08-03T12:23:04.974Z,53.91
2022-08-03T12:25:39.423Z,54.70
2022-08-03T12:28:35.957Z,55.39
2022-08-03T12:31:00.555Z,56.36
2022-08-03T12:33:27.080Z,56.32
2022-08-03T12:36:04.419Z,56.23
2022-08-03T12:38:31.562Z,56.61
2022-08-03T12:41:03.849Z,56.92
2022-08-03T12:43:30.240Z,57.47
2022-08-03T12:46:13.045Z,58.50
2022-08-03T12:49:01.581Z,58.98
2022-08-03T12:51:28.460Z,59.45
2022-08-03T12:53:54.992Z,59.71
2022-08-03T12:56:21.372Z,60.12
2022-08-03T12:58:47.871Z,60.53
2022-08-03T13:01:14.348Z,61.02
2022-08-03T13:03:42.782Z,61.32
2022-08-03T13:06:13.705Z,61.34
2022-08-03T13:08:40.162Z,61.05
2022-08-03T13:11:50.580Z,62.17
2022-08-03T13:14:13.630Z,62.43
2022-08-03T13:16:46.227Z,62.34
2022-08-03T13:19:15.797Z,62.04
2022-08-03T13:21:53.627Z,61.74
2022-08-03T13:24:29.289Z,61.68
2022-08-03T13:26:56.936Z,61.65
2022-08-03T13:29:23.297Z,61.52
2022-08-03T13:31:50.307Z,61.02
2022-08-03T13:34:22.276Z,60.87
2022-08-03T13:39:57.993Z,60.48
2022-08-03T13:42:22.391Z,60.60
2022-08-03T13:44:48.767Z,60.26
2022-08-03T13:47:15.124Z,60.04
2022-08-03T13:49:41.509Z,59.83
2022-08-03T13:52:07.869Z,59.84
2022-08-03T13:54:34.243Z,59.55
2022-08-03T13:57:00.796Z,59.43
2022-08-03T13:59:47.126Z,59.27
2022-08-03T14:02:13.520Z,59.04
2022-08-03T14:04:39.971Z,59.34
2022-08-03T14:07:06.335Z,59.04
2022-08-03T14:09:32.698Z,58.79
2022-08-03T14:12:07.205Z,58.97
2022-08-03T14:14:34.920Z,58.81
2022-08-03T14:17:01.269Z,58.61
2022-08-03T14:19:28.825Z,58.62
2022-08-03T14:22:03.720Z,58.55
2022-08-03T14:24:33.095Z,58.47
2022-08-03T14:27:05.918Z,58.36
2022-08-03T14:29:35.207Z,58.52
2022-08-03T14:32:10.798Z,58.32
2022-08-03T14:34:39.137Z,58.08
2022-08-03T14:37:05.558Z,58.35
2022-08-03T14:39:59.875Z,57.92
2022-08-03T14:42:18.443Z,58.13
2022-08-03T14:44:44.874Z,58.05
2022-08-03T14:47:11.251Z,57.89
2022-08-03T14:50:36.171Z,57.83
2022-08-03T14:52:24.307Z,57.88
2022-08-03T14:54:50.693Z,57.82
2022-08-03T14:57:17.137Z,57.70
2022-08-03T14:59:55.826Z,57.78
2022-08-03T15:02:24.041Z,57.68
2022-08-03T15:04:50.756Z,57.61
2022-08-03T15:07:17.249Z,57.58
2022-08-03T15:09:43.686Z,57.54
2022-08-03T15:12:10.040Z,57.64
2022-08-03T15:14:37.916Z,57.42
2022-08-03T15:17:04.369Z,57.15
2022-08-03T15:20:01.596Z,57.25
2022-08-03T15:22:20.415Z,57.12
2022-08-03T15:24:47.231Z,57.35
2022-08-03T15:27:13.583Z,57.23
2022-08-03T15:30:07.175Z,57.10
2022-08-03T15:32:26.351Z,57.05
2022-08-03T15:34:52.797Z,57.10
2022-08-03T15:37:20.587Z,57.24
2022-08-03T15:39:59.105Z,56.98
2022-08-03T15:42:27.113Z,57.39
2022-08-03T15:44:53.828Z,57.15
2022-08-03T15:47:21.352Z,57.00
2022-08-03T15:49:47.924Z,57.18
2022-08-03T15:52:14.275Z,56.92
2022-08-03T15:54:40.656Z,57.09
2022-08-03T15:57:07.036Z,56.82
2022-08-03T15:59:33.431Z,56.91
2022-08-03T16:01:59.862Z,56.93
2022-08-03T16:04:26.267Z,56.74
2022-08-03T16:06:52.635Z,56.91
2022-08-03T16:09:23.678Z,56.93
2022-08-03T16:12:05.507Z,56.76
2022-08-03T16:14:51.464Z,56.70
2022-08-03T16:17:19.156Z,56.70
2022-08-03T16:19:45.829Z,57.14
2022-08-03T16:22:12.806Z,56.88
2022-08-03T16:24:40.785Z,56.97
2022-08-03T16:27:15.586Z,57.05
2022-08-03T16:29:44.067Z,57.04
2022-08-03T16:32:10.536Z,57.29
2022-08-03T16:34:37.157Z,57.26
2022-08-03T16:37:22.121Z,57.53
2022-08-03T16:39:49.931Z,57.41
2022-08-03T16:42:16.300Z,57.89
2022-08-03T16:44:42.938Z,57.72
2022-08-03T16:47:09.298Z,58.20
2022-08-03T16:49:53.762Z,58.23
2022-08-03T16:52:21.986Z,58.86
2022-08-03T16:54:53.210Z,58.98
2022-08-03T16:57:59.291Z,59.88
2022-08-03T17:00:07.776Z,60.25
2022-08-03T17:02:34.782Z,60.67
2022-08-03T17:05:02.814Z,61.45
2022-08-03T17:07:30.376Z,61.99
2022-08-03T17:09:56.867Z,62.33
2022-08-03T17:12:26.014Z,63.25
2022-08-03T17:14:53.489Z,63.31
2022-08-03T17:17:22.466Z,63.83
2022-08-03T17:19:55.150Z,63.92
2022-08-03T17:22:23.179Z,63.21
2022-08-03T17:24:50.200Z,62.66
2022-08-03T17:28:49.289Z,62.29
2022-08-03T17:30:15.799Z,61.83
2022-08-03T17:32:56.687Z,62.06
2022-08-03T17:35:23.626Z,62.58
2022-08-03T17:38:03.108Z,62.90
2022-08-03T17:40:33.226Z,63.36
2022-08-03T17:43:00.632Z,63.48
2022-08-03T17:45:52.118Z,63.20
2022-08-03T17:48:18.377Z,63.07
2022-08-03T17:51:05.194Z,63.15
2022-08-03T17:53:34.063Z,63.56
2022-08-03T17:56:09.944Z,63.83
2022-08-03T17:59:08.984Z,63.39
2022-08-03T18:02:26.501Z,63.27
2022-08-03T18:05:02.203Z,63.23
2022-08-03T18:07:45.167Z,62.77
2022-08-03T18:10:15.892Z,62.22
2022-08-03T18:12:57.496Z,61.90
2022-08-03T18:15:30.637Z,61.70
2022-08-03T18:18:02.615Z,62.22
2022-08-03T18:20:33.172Z,62.19
2022-08-03T18:23:07.172Z,61.76
2022-08-03T18:25:44.467Z,61.39
2022-08-03T18:28:15.705Z,61.79
2022-08-03T18:30:53.603Z,62.04
2022-08-03T18:34:19.338Z,61.71
2022-08-03T18:36:18.147Z,61.54
2022-08-03T18:38:49.256Z,61.42
2022-08-03T18:41:20.555Z,61.83
2022-08-03T18:44:07.070Z,61.95
2022-08-03T18:46:38.102Z,61.63
2022-08-03T18:49:20.001Z,61.88
2022-08-03T18:51:47.082Z,61.82
2022-08-03T18:54:58.928Z,62.09
2022-08-03T18:57:07.347Z,61.74
2022-08-03T18:59:46.039Z,61.74
2022-08-03T19:02:21.232Z,61.95
2022-08-03T19:04:47.832Z,62.01
2022-08-03T19:07:17.125Z,62.06
2022-08-03T19:09:54.533Z,61.52
2022-08-03T19:12:40.314Z,61.89
2022-08-03T19:15:10.357Z,62.14
2022-08-03T19:20:34.812Z,61.40
2022-08-03T19:23:01.539Z,61.54
2022-08-03T19:25:35.212Z,61.04
2022-08-03T19:28:02.953Z,61.20
2022-08-03T19:30:39.885Z,60.86
2022-08-03T19:33:07.321Z,60.96
2022-08-03T19:35:51.773Z,61.08
2022-08-03T19:38:21.928Z,60.76
2022-08-03T19:40:56.446Z,60.97
2022-08-03T19:43:33.006Z,60.79
2022-08-03T19:46:13.106Z,60.84
2022-08-03T19:48:42.263Z,60.81
2022-08-03T19:51:12.083Z,60.72
2022-08-03T19:53:43.098Z,60.42
2022-08-03T19:56:12.732Z,60.43
2022-08-03T19:58:39.896Z,60.31
2022-08-03T20:01:19.125Z,60.43
2022-08-03T20:03:48.179Z,60.31
2022-08-03T20:06:18.165Z,60.20
2022-08-03T20:08:44.739Z,60.00
2022-08-03T20:11:14.545Z,60.11
2022-08-03T20:13:40.912Z,60.43
2022-08-03T20:16:07.699Z,59.91
2022-08-03T20:18:39.261Z,57.46
2022-08-03T20:21:15.210Z,56.91
2022-08-03T20:24:01.636Z,56.54
2022-08-03T20:26:28.668Z,55.74
2022-08-03T20:28:55.858Z,55.66
2022-08-03T20:31:32.472Z,55.30
2022-08-03T20:34:02.680Z,55.33
2022-08-03T20:36:29.079Z,54.92
2022-08-03T20:38:58.184Z,54.75
2022-08-03T20:41:24.719Z,54.42
2022-08-03T20:43:51.150Z,54.55
2022-08-03T20:46:31.355Z,54.46
2022-08-03T20:49:04.024Z,54.32
2022-08-03T20:51:48.909Z,53.89
2022-08-03T20:54:29.201Z,53.84
2022-08-03T20:56:58.250Z,53.78
2022-08-03T20:59:28.743Z,53.87
2022-08-03T21:01:57.010Z,53.74
2022-08-03T21:04:23.890Z,53.35
2022-08-03T21:06:53.405Z,53.49
2022-08-03T21:09:20.165Z,53.41
2022-08-03T21:11:49.082Z,53.24
2022-08-03T21:13:09.559Z,61.61
2022-08-03T21:14:20.492Z,53.55
2022-08-03T21:16:46.913Z,53.29
2022-08-03T21:19:13.345Z,53.20
2022-08-03T21:21:39.772Z,53.21
2022-08-03T21:24:06.386Z,53.25
2022-08-03T21:26:33.458Z,53.43
2022-08-03T21:29:00.735Z,53.40
2022-08-03T21:31:27.257Z,53.73
2022-08-03T21:33:57.010Z,53.37
2022-08-03T21:36:23.849Z,53.41
2022-08-03T21:38:56.340Z,53.43
2022-08-03T21:41:24.313Z,53.57
2022-08-03T21:43:50.747Z,53.71
2022-08-03T21:46:17.173Z,53.46
2022-08-03T21:48:44.773Z,53.60
2022-08-03T21:51:12.263Z,53.76
2022-08-03T21:54:02.309Z,53.37
2022-08-03T21:56:25.072Z,53.72
2022-08-03T21:58:55.058Z,53.72
2022-08-03T22:01:25.136Z,53.27
2022-08-03T22:03:55.068Z,53.14
2022-08-03T22:06:22.720Z,52.77
2022-08-03T22:08:53.522Z,52.99
2022-08-03T22:11:20.322Z,53.16
2022-08-03T22:13:46.731Z,53.37
2022-08-03T22:16:13.379Z,53.46
2022-08-03T22:18:39.937Z,53.35
2022-08-03T22:21:06.904Z,53.27
2022-08-03T22:23:34.421Z,53.87
2022-08-03T22:26:01.607Z,53.77
2022-08-03T22:28:28.896Z,54.18
2022-08-03T22:30:55.262Z,54.45
2022-08-03T22:33:21.622Z,54.36
2022-08-03T22:35:49.344Z,54.14
2022-08-03T22:38:16.455Z,54.11
2022-08-03T22:40:42.819Z,54.25
2022-08-03T22:43:09.194Z,54.17
2022-08-03T22:46:07.155Z,54.49
2022-08-03T22:48:21.907Z,54.10
2022-08-03T22:50:48.401Z,53.79
2022-08-03T22:53:23.702Z,53.66
2022-08-03T22:55:50.344Z,53.84
2022-08-03T22:58:16.833Z,54.03
2022-08-03T23:01:06.465Z,54.10
2022-08-03T23:04:00.311Z,53.84
2022-08-03T23:06:21.281Z,54.06
2022-08-03T23:08:47.655Z,54.12
2022-08-03T23:11:14.026Z,54.26
2022-08-03T23:13:40.394Z,54.27
2022-08-03T23:16:07.257Z,54.52
2022-08-03T23:18:37.527Z,54.20
2022-08-03T23:21:06.021Z,54.52
2022-08-03T23:23:44.514Z,54.07
2022-08-03T23:26:11.475Z,54.59
2022-08-03T23:28:37.814Z,54.45
2022-08-03T23:31:04.180Z,54.24
2022-08-03T23:33:30.539Z,54.55
2022-08-03T23:36:18.755Z,54.69
2022-08-03T23:38:43.452Z,54.41
2022-08-03T23:41:09.816Z,54.71
2022-08-03T23:43:52.329Z,54.64
2022-08-03T23:46:21.107Z,54.64
2022-08-03T23:48:47.482Z,54.66
2022-08-03T23:51:18.111Z,54.49
2022-08-03T23:53:46.185Z,54.66
2022-08-03T23:56:13.733Z,54.46
2022-08-03T23:58:42.969Z,54.99
